createdAt,value
2022-10-09T00:00:44.185Z,3.31
2022-10-09T00:03:11.238Z,4.30
2022-10-09T00:05:38.440Z,4.11
2022-10-09T00:08:05.519Z,3.97
2022-10-09T00:10:33.588Z,4.80
2022-10-09T00:13:00.528Z,3.87
2022-10-09T00:15:29.057Z,3.82
2022-10-09T00:17:55.867Z,3.86
2022-10-09T00:20:23.649Z,3.40
2022-10-09T00:22:51.891Z,3.46
2022-10-09T00:25:18.678Z,4.88
2022-10-09T00:27:45.593Z,4.78
2022-10-09T00:30:13.083Z,3.81
2022-10-09T00:32:42.479Z,4.50
2022-10-09T00:35:09.526Z,3.47
2022-10-09T00:37:36.499Z,3.57
2022-10-09T00:40:04.004Z,4.41
2022-10-09T00:42:33.459Z,5.94
2022-10-09T00:45:01.637Z,6.22
2022-10-09T00:47:33.356Z,5.17
2022-10-09T00:50:04.851Z,4.04
2022-10-09T00:52:32.933Z,3.56
2022-10-09T00:55:02.365Z,3.80
2022-10-09T00:57:32.947Z,4.54
2022-10-09T01:00:03.082Z,4.53
2022-10-09T01:02:30.049Z,3.95
2022-10-09T01:04:57.373Z,5.53
2022-10-09T01:07:36.705Z,4.55
2022-10-09T01:10:14.960Z,4.39
2022-10-09T01:12:50.239Z,4.50
2022-10-09T01:15:20.630Z,4.30
2022-10-09T01:17:56.245Z,5.61
2022-10-09T01:20:31.617Z,5.37
2022-10-09T01:23:18.894Z,6.28
2022-10-09T01:25:56.931Z,5.07
2022-10-09T01:28:30.218Z,4.14
2022-10-09T01:31:02.535Z,4.19
2022-10-09T01:33:31.744Z,3.74
2022-10-09T01:35:59.878Z,4.71
2022-10-09T01:38:28.876Z,4.29
2022-10-09T01:40:56.985Z,3.79
2022-10-09T01:43:25.400Z,3.96
2022-10-09T01:45:52.379Z,4.12
2022-10-09T01:48:23.741Z,4.76
2022-10-09T01:50:56.000Z,4.00
2022-10-09T01:53:24.512Z,4.72
2022-10-09T01:55:58.591Z,4.07
2022-10-09T01:58:33.580Z,3.53
2022-10-09T02:01:04.898Z,3.13
2022-10-09T02:03:33.486Z,3.70
2022-10-09T02:06:02.571Z,4.27
2022-10-09T02:08:31.243Z,4.84
2022-10-09T02:11:01.826Z,4.37
2022-10-09T02:13:32.063Z,4.07
2022-10-09T02:16:06.589Z,3.87
2022-10-09T02:18:38.096Z,3.82
2022-10-09T02:21:11.364Z,4.35
2022-10-09T02:23:41.807Z,4.41
2022-10-09T02:26:11.216Z,4.69
2022-10-09T02:28:45.073Z,4.35
2022-10-09T02:31:18.246Z,4.43
2022-10-09T02:33:46.243Z,3.94
2022-10-09T02:36:14.215Z,5.82
2022-10-09T02:38:42.220Z,5.54
2022-10-09T02:41:09.229Z,6.00
2022-10-09T02:43:36.761Z,4.89
2022-10-09T02:46:06.456Z,4.53
2022-10-09T02:48:33.521Z,6.00
2022-10-09T02:51:00.474Z,5.35
2022-10-09T02:53:27.756Z,4.58
2022-10-09T02:55:55.003Z,5.23
2022-10-09T02:58:21.965Z,5.89
2022-10-09T03:00:51.258Z,6.07
2022-10-09T03:03:20.597Z,5.45
2022-10-09T03:05:47.788Z,4.70
2022-10-09T03:08:17.954Z,6.23
2022-10-09T03:10:46.167Z,6.11
2022-10-09T03:13:12.917Z,5.85
2022-10-09T03:15:40.490Z,6.16
2022-10-09T03:18:07.521Z,5.45
2022-10-09T03:20:35.795Z,5.34
2022-10-09T03:23:02.726Z,5.03
2022-10-09T03:25:29.935Z,5.01
2022-10-09T03:27:56.926Z,4.34
2022-10-09T03:30:23.758Z,4.76
2022-10-09T03:32:51.862Z,5.00
2022-10-09T03:35:19.769Z,5.41
2022-10-09T03:37:51.767Z,4.80
2022-10-09T03:40:18.578Z,6.38
2022-10-09T03:42:45.985Z,6.09
2022-10-09T03:45:13.307Z,5.27
2022-10-09T03:47:40.083Z,4.71
2022-10-09T03:50:07.994Z,4.89
2022-10-09T03:52:34.952Z,4.30
2022-10-09T03:55:03.842Z,5.11
2022-10-09T03:57:30.699Z,4.73
2022-10-09T03:59:59.121Z,4.18
2022-10-09T04:02:26.060Z,3.82
2022-10-09T04:04:55.205Z,5.28
2022-10-09T04:07:23.225Z,5.99
2022-10-09T04:09:50.075Z,7.30
2022-10-09T04:12:19.524Z,8.40
2022-10-09T04:14:46.334Z,6.43
2022-10-09T04:17:14.476Z,4.59
2022-10-09T04:19:41.285Z,4.65
2022-10-09T04:22:08.214Z,4.86
2022-10-09T04:24:35.017Z,4.08
2022-10-09T04:27:02.068Z,5.11
2022-10-09T04:29:32.624Z,6.70
2022-10-09T04:32:00.896Z,7.71
2022-10-09T04:34:28.863Z,5.07
2022-10-09T04:36:55.901Z,5.88
2022-10-09T04:39:24.502Z,4.98
2022-10-09T04:41:51.276Z,5.02
2022-10-09T04:44:18.714Z,5.24
2022-10-09T04:46:49.565Z,5.47
2022-10-09T04:49:16.667Z,4.63
2022-10-09T04:51:43.923Z,5.16
2022-10-09T04:54:10.775Z,5.64
2022-10-09T04:56:37.798Z,5.67
2022-10-09T05:01:38.474Z,5.73
2022-10-09T05:04:07.047Z,4.93
2022-10-09T05:06:33.790Z,5.23
2022-10-09T05:09:00.841Z,4.48
2022-10-09T05:11:28.303Z,4.49
2022-10-09T05:13:57.788Z,4.02
2022-10-09T05:16:26.721Z,4.37
2022-10-09T05:18:56.220Z,3.76
2022-10-09T05:21:25.268Z,4.28
2022-10-09T05:23:53.885Z,3.81
2022-10-09T05:26:24.341Z,4.80
2022-10-09T05:28:52.483Z,5.81
2022-10-09T05:31:23.478Z,5.93
2022-10-09T05:33:50.941Z,6.06
2022-10-09T05:36:19.014Z,6.10
2022-10-09T05:38:50.319Z,5.36
2022-10-09T05:41:20.686Z,5.73
2022-10-09T05:43:49.423Z,5.74
2022-10-09T05:46:18.475Z,6.26
2022-10-09T05:48:50.591Z,6.57
2022-10-09T05:51:19.010Z,6.03
2022-10-09T05:53:48.780Z,5.88
2022-10-09T05:56:17.690Z,4.95
2022-10-09T05:58:47.804Z,4.10
2022-10-09T06:01:15.077Z,5.30
2022-10-09T06:03:45.088Z,6.03
2022-10-09T06:06:12.103Z,4.90
2022-10-09T06:08:39.093Z,6.12
2022-10-09T06:11:12.163Z,7.06
2022-10-09T06:13:39.383Z,6.44
2022-10-09T06:16:06.338Z,6.37
2022-10-09T06:18:34.759Z,5.37
2022-10-09T06:21:02.803Z,4.98
2022-10-09T06:23:32.507Z,5.11
2022-10-09T06:26:00.802Z,5.52
2022-10-09T06:28:32.686Z,5.55
2022-10-09T06:31:03.317Z,4.96
2022-10-09T06:33:33.630Z,5.50
2022-10-09T06:36:09.420Z,4.58
2022-10-09T06:38:38.154Z,4.58
2022-10-09T06:41:06.319Z,4.56
2022-10-09T06:43:36.320Z,4.30
2022-10-09T06:46:05.462Z,3.89
2022-10-09T06:48:34.837Z,4.15
2022-10-09T06:51:02.133Z,5.73
2022-10-09T06:53:29.388Z,5.15
2022-10-09T06:55:57.730Z,4.46
2022-10-09T06:58:25.717Z,3.51
2022-10-09T07:01:05.015Z,3.10
2022-10-09T07:03:33.918Z,3.85
2022-10-09T07:06:09.145Z,3.29
2022-10-09T07:08:36.450Z,3.20
2022-10-09T07:11:10.092Z,3.81
2022-10-09T07:13:37.367Z,3.59
2022-10-09T07:16:13.651Z,4.14
2022-10-09T07:18:40.475Z,4.84
2022-10-09T07:21:09.719Z,5.33
2022-10-09T07:23:37.251Z,4.84
2022-10-09T07:26:10.613Z,4.96
2022-10-09T07:28:37.525Z,5.54
2022-10-09T07:31:11.180Z,5.56
2022-10-09T07:33:38.350Z,6.01
2022-10-09T07:36:06.554Z,6.54
2022-10-09T07:38:33.759Z,5.80
2022-10-09T07:41:01.972Z,5.57
2022-10-09T07:43:29.572Z,5.58
2022-10-09T07:45:59.139Z,5.26
2022-10-09T07:48:28.670Z,4.66
2022-10-09T07:50:55.977Z,4.76
2022-10-09T07:53:24.344Z,5.03
2022-10-09T07:55:51.142Z,5.09
2022-10-09T07:58:18.684Z,5.45
2022-10-09T08:00:45.468Z,5.85
2022-10-09T08:03:14.500Z,4.84
2022-10-09T08:05:44.009Z,5.06
2022-10-09T08:08:13.284Z,4.99
2022-10-09T08:10:40.380Z,4.98
2022-10-09T08:13:08.312Z,4.54
2022-10-09T08:15:40.439Z,3.81
2022-10-09T08:18:07.563Z,4.19
2022-10-09T08:20:34.719Z,4.09
2022-10-09T08:23:04.586Z,4.66
2022-10-09T08:25:34.682Z,4.26
2022-10-09T08:28:04.364Z,4.19
2022-10-09T08:30:31.397Z,4.14
2022-10-09T08:32:58.298Z,4.19
2022-10-09T08:35:25.378Z,4.27
2022-10-09T08:37:52.511Z,4.72
2022-10-09T08:40:29.275Z,4.51
2022-10-09T08:43:04.922Z,4.12
2022-10-09T08:45:33.748Z,4.35
2022-10-09T08:48:04.787Z,4.31
2022-10-09T08:50:35.884Z,4.38
2022-10-09T08:53:10.229Z,5.23
2022-10-09T08:55:45.845Z,6.34
2022-10-09T08:58:17.257Z,5.30
2022-10-09T09:00:49.969Z,4.64
2022-10-09T09:03:44.114Z,4.05
2022-10-09T09:06:15.887Z,3.43
2022-10-09T09:08:48.794Z,3.46
2022-10-09T09:11:35.803Z,3.69
2022-10-09T09:14:19.255Z,3.13
2022-10-09T09:16:54.208Z,3.64
2022-10-09T09:19:42.932Z,3.25
2022-10-09T09:22:13.389Z,5.52
2022-10-09T09:24:45.367Z,4.69
2022-10-09T09:27:17.890Z,4.35
2022-10-09T09:29:54.358Z,3.49
2022-10-09T09:32:27.424Z,3.43
2022-10-09T09:35:03.018Z,2.80
2022-10-09T09:37:29.822Z,2.90
2022-10-09T09:42:52.576Z,3.74
2022-10-09T09:45:24.772Z,2.82
2022-10-09T09:47:54.898Z,2.43
2022-10-09T09:50:46.959Z,2.84
2022-10-09T09:53:27.517Z,2.92
2022-10-09T09:55:56.359Z,2.92
2022-10-09T09:58:33.661Z,2.39
2022-10-09T10:01:03.807Z,2.18
2022-10-09T10:03:31.243Z,1.77
2022-10-09T10:05:59.303Z,2.27
2022-10-09T10:08:29.134Z,2.66
2022-10-09T10:10:57.744Z,2.58
2022-10-09T10:13:33.478Z,2.74
2022-10-09T10:16:01.523Z,2.97
2022-10-09T10:18:31.111Z,4.07
2022-10-09T10:21:04.309Z,3.83
2022-10-09T10:23:35.472Z,3.99
2022-10-09T10:26:07.119Z,3.82
2022-10-09T10:28:44.363Z,3.04
2022-10-09T10:31:20.263Z,3.21
2022-10-09T10:33:54.376Z,3.32
2022-10-09T10:38:55.662Z,4.23
2022-10-09T10:41:30.638Z,5.56
2022-10-09T10:44:04.222Z,4.19
2022-10-09T10:46:38.290Z,3.72
2022-10-09T10:49:09.330Z,3.49
2022-10-09T10:51:51.386Z,2.75
2022-10-09T10:54:30.626Z,3.13
2022-10-09T10:57:07.324Z,3.61
2022-10-09T10:59:39.613Z,3.54
2022-10-09T11:02:30.874Z,5.03
2022-10-09T11:05:10.743Z,5.23
2022-10-09T11:07:45.195Z,3.42
2022-10-09T11:10:20.028Z,3.13
2022-10-09T11:12:52.317Z,2.45
2022-10-09T11:15:31.351Z,2.06
2022-10-09T11:18:07.963Z,1.99
2022-10-09T11:20:51.974Z,2.13
2022-10-09T11:23:31.160Z,2.00
2022-10-09T11:26:11.250Z,2.20
2022-10-09T11:28:45.523Z,1.94
2022-10-09T11:31:19.102Z,1.64
2022-10-09T11:33:52.371Z,2.16
2022-10-09T11:36:25.142Z,2.06
2022-10-09T11:38:57.440Z,1.66
2022-10-09T11:41:26.662Z,1.36
2022-10-09T11:44:07.976Z,1.46
2022-10-09T11:46:44.835Z,1.64
2022-10-09T11:49:23.441Z,2.38
2022-10-09T11:51:56.072Z,2.09
2022-10-09T11:54:24.787Z,4.91
2022-10-09T11:56:59.335Z,2.96
2022-10-09T11:59:29.909Z,2.37
2022-10-09T12:01:59.879Z,2.53
2022-10-09T12:04:53.452Z,2.23
2022-10-09T12:07:29.072Z,1.55
2022-10-09T12:10:00.577Z,1.74
2022-10-09T12:12:28.351Z,2.38
2022-10-09T12:14:57.070Z,2.08
2022-10-09T12:17:35.148Z,1.93
2022-10-09T12:20:06.596Z,1.58
2022-10-09T12:22:37.903Z,1.44
2022-10-09T12:25:11.246Z,2.44
2022-10-09T12:27:40.988Z,1.98
2022-10-09T12:30:20.350Z,2.14
2022-10-09T12:32:54.015Z,2.31
2022-10-09T12:35:25.240Z,2.35
2022-10-09T12:37:52.167Z,2.89
2022-10-09T12:40:25.136Z,2.65
2022-10-09T12:42:53.756Z,2.45
2022-10-09T12:45:23.818Z,2.41
2022-10-09T12:47:53.456Z,3.40
2022-10-09T12:50:24.158Z,2.68
2022-10-09T12:52:53.771Z,2.66
2022-10-09T12:55:27.014Z,2.82
2022-10-09T12:57:56.770Z,2.95
2022-10-09T13:00:23.739Z,3.44
2022-10-09T13:02:52.557Z,2.79
2022-10-09T13:05:19.839Z,2.41
2022-10-09T13:07:52.427Z,2.37
2022-10-09T13:10:23.547Z,2.10
2022-10-09T13:12:52.867Z,2.32
2022-10-09T13:15:32.518Z,2.02
2022-10-09T13:18:20.767Z,2.25
2022-10-09T13:20:59.178Z,2.28
2022-10-09T13:23:32.200Z,3.17
2022-10-09T13:26:03.692Z,3.39
2022-10-09T13:28:31.105Z,2.66
2022-10-09T13:31:06.850Z,3.00
2022-10-09T13:33:35.263Z,2.28
2022-10-09T13:36:02.693Z,2.14
2022-10-09T13:38:35.074Z,2.28
2022-10-09T13:41:03.043Z,2.34
2022-10-09T13:43:30.119Z,2.99
2022-10-09T13:45:59.352Z,2.86
2022-10-09T13:48:27.274Z,2.23
2022-10-09T13:50:55.434Z,1.67
2022-10-09T13:53:22.415Z,2.76
2022-10-09T13:55:49.261Z,2.39
2022-10-09T13:58:17.218Z,2.58
2022-10-09T14:00:45.117Z,2.77
2022-10-09T14:03:12.258Z,2.56
2022-10-09T14:05:39.034Z,1.81
2022-10-09T14:08:08.675Z,1.92
2022-10-09T14:10:37.174Z,1.75
2022-10-09T14:13:04.403Z,2.68
2022-10-09T14:15:33.393Z,2.87
2022-10-09T14:18:00.177Z,2.53
2022-10-09T14:20:29.753Z,2.54
2022-10-09T14:22:56.644Z,3.18
2022-10-09T14:25:25.165Z,3.57
2022-10-09T14:27:51.978Z,3.00
2022-10-09T14:30:18.808Z,2.37
2022-10-09T14:32:45.947Z,2.42
2022-10-09T14:35:13.267Z,3.21
2022-10-09T14:37:42.139Z,2.78
2022-10-09T14:40:10.728Z,2.94
2022-10-09T14:42:39.366Z,2.41
2022-10-09T14:45:07.663Z,2.37
2022-10-09T14:47:34.452Z,3.40
2022-10-09T14:50:01.445Z,4.24
2022-10-09T14:52:29.472Z,3.70
2022-10-09T14:54:57.392Z,2.74
2022-10-09T14:57:24.200Z,1.95
2022-10-09T14:59:53.059Z,1.96
2022-10-09T15:02:20.079Z,2.65
2022-10-09T15:04:46.863Z,2.48
2022-10-09T15:07:14.001Z,1.92
2022-10-09T15:09:40.917Z,2.90
2022-10-09T15:12:08.176Z,2.64
2022-10-09T15:14:35.023Z,1.79
2022-10-09T15:17:03.432Z,1.97
2022-10-09T15:19:30.642Z,2.04
2022-10-09T15:21:59.604Z,2.80
2022-10-09T15:24:26.361Z,3.35
2022-10-09T15:26:53.587Z,2.39
2022-10-09T15:29:20.731Z,2.16
2022-10-09T15:31:50.341Z,2.04
2022-10-09T15:34:20.576Z,2.87
2022-10-09T15:36:49.955Z,2.43
2022-10-09T15:39:16.880Z,2.83
2022-10-09T15:41:44.163Z,2.74
2022-10-09T15:44:16.664Z,3.83
2022-10-09T15:46:47.755Z,5.02
2022-10-09T15:49:14.580Z,4.58
2022-10-09T15:51:43.197Z,3.16
2022-10-09T15:54:11.294Z,2.62
2022-10-09T15:56:40.374Z,3.17
2022-10-09T15:59:11.994Z,3.50
2022-10-09T16:01:40.793Z,3.35
2022-10-09T16:04:10.751Z,3.76
2022-10-09T16:06:37.651Z,3.96
2022-10-09T16:09:06.833Z,3.64
2022-10-09T16:11:34.270Z,3.69
2022-10-09T16:14:01.313Z,5.05
2022-10-09T16:16:28.232Z,4.95
2022-10-09T16:18:56.601Z,4.29
2022-10-09T16:21:26.752Z,4.84
2022-10-09T16:23:58.505Z,4.83
2022-10-09T16:26:28.457Z,3.93
2022-10-09T16:28:56.645Z,2.87
2022-10-09T16:31:25.297Z,3.84
2022-10-09T16:33:52.379Z,3.83
2022-10-09T16:36:19.522Z,4.21
2022-10-09T16:38:46.860Z,3.68
2022-10-09T16:41:16.901Z,3.47
2022-10-09T16:43:46.479Z,2.37
2022-10-09T16:46:18.918Z,2.82
2022-10-09T16:48:46.713Z,3.62
2022-10-09T16:51:19.910Z,3.35
2022-10-09T16:53:49.486Z,2.80
2022-10-09T16:56:19.026Z,2.77
2022-10-09T16:58:47.490Z,2.84
2022-10-09T17:01:15.028Z,3.65
2022-10-09T17:03:42.165Z,3.11
2022-10-09T17:06:11.537Z,3.39
2022-10-09T17:08:38.963Z,5.22
2022-10-09T17:11:07.578Z,5.51
2022-10-09T17:13:34.425Z,7.00
2022-10-09T17:16:05.218Z,4.78
2022-10-09T17:18:32.019Z,3.70
2022-10-09T17:21:01.664Z,3.49
2022-10-09T17:23:28.470Z,3.16
2022-10-09T17:25:58.043Z,3.19
2022-10-09T17:28:25.339Z,3.54
2022-10-09T17:30:52.250Z,4.53
2022-10-09T17:33:20.651Z,5.47
2022-10-09T17:35:47.688Z,4.82
2022-10-09T17:38:14.898Z,4.34
2022-10-09T17:40:42.091Z,4.59
2022-10-09T17:43:09.189Z,3.91
2022-10-09T17:45:39.767Z,2.79
2022-10-09T17:48:07.336Z,3.12
2022-10-09T17:50:36.439Z,3.57
2022-10-09T17:53:08.673Z,4.95
2022-10-09T17:55:37.501Z,5.19
2022-10-09T17:58:05.381Z,4.65
2022-10-09T18:00:32.194Z,4.33
2022-10-09T18:02:58.985Z,3.91
2022-10-09T18:05:27.203Z,3.55
2022-10-09T18:07:56.036Z,5.64
2022-10-09T18:10:23.001Z,5.51
2022-10-09T18:12:52.206Z,5.19
2022-10-09T18:15:19.333Z,4.94
2022-10-09T18:17:46.091Z,4.02
2022-10-09T18:20:13.199Z,4.14
2022-10-09T18:22:39.974Z,4.08
2022-10-09T18:25:10.798Z,4.54
2022-10-09T18:27:37.965Z,4.79
2022-10-09T18:30:07.338Z,3.87
2022-10-09T18:32:36.346Z,4.28
2022-10-09T18:35:04.278Z,4.22
2022-10-09T18:37:31.361Z,4.85
2022-10-09T18:39:58.289Z,3.97
2022-10-09T18:42:26.601Z,3.61
2022-10-09T18:44:54.606Z,3.96
2022-10-09T18:47:23.749Z,4.63
2022-10-09T18:49:54.576Z,5.40
2022-10-09T18:52:21.695Z,6.50
2022-10-09T18:54:52.531Z,4.69
2022-10-09T18:57:20.652Z,4.80
2022-10-09T18:59:50.681Z,4.82
2022-10-09T19:02:18.077Z,4.55
2022-10-09T19:04:45.885Z,4.70
2022-10-09T19:07:12.889Z,5.99
2022-10-09T19:09:39.920Z,6.48
2022-10-09T19:12:06.802Z,5.39
2022-10-09T19:14:34.719Z,4.65
2022-10-09T19:17:02.950Z,4.77
2022-10-09T19:19:29.682Z,4.34
2022-10-09T19:21:57.401Z,4.22
2022-10-09T19:24:24.184Z,3.40
2022-10-09T19:26:58.278Z,3.11
2022-10-09T19:31:55.518Z,4.70
2022-10-09T19:34:23.976Z,4.57
2022-10-09T19:36:55.626Z,5.83
2022-10-09T19:39:22.462Z,4.39
2022-10-09T19:41:49.436Z,3.66
2022-10-09T19:44:17.645Z,3.77
2022-10-09T19:46:45.939Z,3.36
2022-10-09T19:49:12.782Z,3.73
2022-10-09T19:51:42.456Z,3.43
2022-10-09T19:54:10.500Z,3.60
2022-10-09T19:56:40.253Z,5.02
2022-10-09T19:59:08.820Z,3.98
2022-10-09T20:01:37.457Z,4.10
2022-10-09T20:04:07.929Z,4.54
2022-10-09T20:06:36.936Z,4.55
2022-10-09T20:09:06.421Z,3.40
2022-10-09T20:11:33.280Z,3.64
2022-10-09T20:14:00.710Z,2.74
2022-10-09T20:16:28.735Z,3.65
2022-10-09T20:18:56.232Z,3.43
2022-10-09T20:21:23.098Z,4.97
2022-10-09T20:23:50.324Z,3.73
2022-10-09T20:26:21.368Z,2.80
2022-10-09T20:28:48.600Z,2.74
2022-10-09T20:31:17.565Z,4.20
2022-10-09T20:33:46.430Z,3.13
2022-10-09T20:36:20.296Z,3.78
2022-10-09T20:38:48.706Z,4.34
2022-10-09T20:41:18.077Z,4.97
2022-10-09T20:43:50.455Z,4.63
2022-10-09T20:46:17.359Z,4.54
2022-10-09T20:48:45.757Z,3.48
2022-10-09T20:51:12.727Z,3.73
2022-10-09T20:53:40.069Z,4.92
2022-10-09T20:56:10.909Z,10.59
2022-10-09T20:58:37.817Z,7.73
2022-10-09T21:01:09.752Z,6.25
2022-10-09T21:03:38.519Z,5.84
2022-10-09T21:06:08.096Z,5.47
2022-10-09T21:08:35.823Z,6.55
2022-10-09T21:11:05.991Z,6.05
2022-10-09T21:13:34.429Z,6.19
2022-10-09T21:16:06.463Z,5.00
2022-10-09T21:18:33.639Z,4.96
2022-10-09T21:21:04.442Z,4.27
2022-10-09T21:23:31.745Z,4.43
2022-10-09T21:25:58.871Z,4.13
2022-10-09T21:28:26.376Z,4.03
2022-10-09T21:30:54.542Z,3.60
2022-10-09T21:33:24.923Z,3.26
2022-10-09T21:35:52.508Z,3.21
2022-10-09T21:38:21.411Z,3.80
2022-10-09T21:40:49.702Z,3.41
2022-10-09T21:43:17.240Z,3.67
2022-10-09T21:45:48.551Z,4.49
2022-10-09T21:48:16.837Z,4.51
2022-10-09T21:50:45.606Z,4.26
2022-10-09T21:53:13.554Z,4.22
2022-10-09T21:55:43.255Z,3.62
2022-10-09T21:58:11.369Z,4.11
2022-10-09T22:00:38.247Z,4.17
2022-10-09T22:03:05.060Z,3.54
2022-10-09T22:05:32.114Z,3.04
2022-10-09T22:08:01.935Z,2.75
2022-10-09T22:10:28.797Z,3.41
2022-10-09T22:12:56.825Z,3.16
2022-10-09T22:15:23.607Z,3.01
2022-10-09T22:17:51.545Z,3.12
2022-10-09T22:20:18.681Z,4.09
2022-10-09T22:22:46.998Z,3.01
2022-10-09T22:25:15.810Z,3.16
2022-10-09T22:27:43.257Z,3.56
2022-10-09T22:30:11.367Z,3.48
2022-10-09T22:32:38.155Z,3.11
2022-10-09T22:35:05.702Z,2.75
2022-10-09T22:37:34.066Z,3.42
2022-10-09T22:40:00.975Z,2.69
2022-10-09T22:42:29.489Z,3.01
2022-10-09T22:44:56.227Z,3.01
2022-10-09T22:47:23.257Z,2.87
2022-10-09T22:49:50.074Z,3.09
2022-10-09T22:52:17.205Z,5.16
2022-10-09T22:54:45.316Z,5.84
2022-10-09T22:57:12.072Z,4.82
2022-10-09T22:59:40.417Z,4.34
2022-10-09T23:02:07.406Z,3.22
2022-10-09T23:04:35.645Z,4.35
2022-10-09T23:07:02.730Z,3.87
2022-10-09T23:09:32.421Z,6.01
2022-10-09T23:11:59.907Z,5.05
2022-10-09T23:14:27.928Z,4.43
2022-10-09T23:16:56.106Z,4.42
2022-10-09T23:19:22.902Z,4.25
2022-10-09T23:21:49.740Z,4.31
2022-10-09T23:24:17.241Z,3.89
2022-10-09T23:26:44.930Z,4.19
2022-10-09T23:29:15.122Z,4.85
2022-10-09T23:31:42.104Z,4.03
2022-10-09T23:34:10.645Z,3.52
2022-10-09T23:36:37.386Z,3.43
2022-10-09T23:39:05.958Z,3.57
2022-10-09T23:41:33.202Z,3.69
2022-10-09T23:44:01.496Z,4.01
2022-10-09T23:46:31.168Z,3.54
2022-10-09T23:48:57.975Z,3.02
2022-10-09T23:51:27.336Z,3.26
2022-10-09T23:53:54.841Z,3.30
2022-10-09T23:56:24.919Z,3.06
2022-10-09T23:58:52.592Z,3.65
